| time (UTC) | temp C | wind direction | speed KPH | gust KPH | rain 1hr cm | rain 24hr cm | rain mn cm | humidity % | barometer mb |
| 20260903174458 | 13 | 116 | 1.6 | 6.4 | 0.00 | 0.00 | 0.05 | 81 | 1008.8 |
| 20260903174246 | -17 | 0.0 | 0.0 | 0.00 | 0.00 | 0.00 | |||
| 20260903173957 | 12 | 128 | 4.8 | 8.0 | 0.00 | 0.00 | 0.05 | 82 | 1008.7 |
| 20260903173746 | -17 | 0.0 | 0.0 | 0.00 | 0.00 | 0.00 | |||
| 20260903173457 | 12 | 82 | 4.8 | 9.7 | 0.00 | 0.00 | 0.05 | 82 | 1008.8 |
| 20260903173247 | -17 | 0.0 | 0.0 | 0.00 | 0.00 | 0.00 | |||
| 20260903172957 | 12 | 104 | 9.7 | 12.9 | 0.00 | 0.00 | 0.05 | 82 | 1008.8 |
| 20260903172747 | -17 | 0.0 | 0.0 | 0.00 | 0.00 | 0.00 | |||
| 20260903172459 | 12 | 106 | 4.8 | 8.0 | 0.00 | 0.00 | 0.05 | 82 | 1008.7 |
| 20260903172247 | -17 | 0.0 | 0.0 | 0.00 | 0.00 | 0.00 | |||
| 20260903171957 | 12 | 123 | 4.8 | 11.3 | 0.00 | 0.00 | 0.05 | 83 | 1008.7 |
| 20260903171746 | -17 | 0.0 | 0.0 | 0.00 | 0.00 | 0.00 | |||
| 20260903171457 | 12 | 135 | 3.2 | 3.2 | 0.00 | 0.00 | 0.05 | 84 | 1008.7 |
| 20260903171247 | -17 | 0.0 | 0.0 | 0.00 | 0.00 | 0.00 | |||
| 20260903170958 | 12 | 102 | 6.4 | 9.7 | 0.00 | 0.00 | 0.05 | 85 | 1008.6 |
| 20260903170458 | 12 | 106 | 3.2 | 6.4 | 0.00 | 0.00 | 0.05 | 86 | 1008.6 |
| 20260903170247 | -17 | 0.0 | 0.0 | 0.00 | 0.00 | 0.00 | |||
| 20260903165957 | 12 | 114 | 4.8 | 6.4 | 0.00 | 0.00 | 0.05 | 86 | 1008.6 |
| 20260903165748 | -17 | 0.0 | 0.0 | 0.00 | 0.00 | 0.00 | |||
| 20260903165457 | 12 | 106 | 6.4 | 9.7 | 0.00 | 0.00 | 0.05 | 86 | 1008.6 |
| 20260903165245 | -17 | 0.0 | 0.0 | 0.00 | 0.00 | 0.00 | |||
| 20260903164958 | 12 | 109 | 6.4 | 12.9 | 0.00 | 0.00 | 0.05 | 87 | 1008.6 |
| 20260903164744 | -17 | 0.0 | 0.0 | 0.00 | 0.00 | 0.00 | |||
| 20260903164458 | 12 | 116 | 4.8 | 8.0 | 0.00 | 0.00 | 0.05 | 86 | 1008.6 |
| 20260903164245 | -17 | 0.0 | 0.0 | 0.00 | 0.00 | 0.00 | |||
| 20260903163957 | 12 | 120 | 6.4 | 11.3 | 0.00 | 0.00 | 0.05 | 86 | 1008.5 |
| 20260903163744 | -17 | 0.0 | 0.0 | 0.00 | 0.00 | 0.00 | |||
| 20260903163459 | 12 | 113 | 6.4 | 11.3 | 0.00 | 0.00 | 0.05 | 86 | 1008.5 |
| 20260903162957 | 12 | 117 | 6.4 | 9.7 | 0.00 | 0.00 | 0.05 | 86 | 1008.4 |
| 20260903162742 | -17 | 0.0 | 0.0 | 0.00 | 0.00 | 0.00 | |||
| 20260903162458 | 12 | 106 | 9.7 | 12.9 | 0.00 | 0.00 | 0.05 | 85 | 1008.3 |
| 20260903162241 | -17 | 0.0 | 0.0 | 0.00 | 0.00 | 0.00 | |||
| 20260903161958 | 12 | 120 | 4.8 | 8.0 | 0.00 | 0.00 | 0.05 | 86 | 1008.3 |
| 20260903161742 | -17 | 0.0 | 0.0 | 0.00 | 0.00 | 0.00 | |||
| 20260903161457 | 12 | 117 | 6.4 | 9.7 | 0.00 | 0.00 | 0.05 | 85 | 1008.3 |
| 20260903161242 | -17 | 0.0 | 0.0 | 0.00 | 0.00 | 0.00 | |||
| 20260903160959 | 12 | 119 | 6.4 | 12.9 | 0.00 | 0.00 | 0.05 | 85 | 1008.3 |
| 20260903160742 | -17 | 0.0 | 0.0 | 0.00 | 0.00 | 0.00 | |||
| 20260903160457 | 12 | 103 | 8.0 | 9.7 | 0.00 | 0.00 | 0.05 | 86 | 1008.1 |
| 20260903160243 | -17 | 0.0 | 0.0 | 0.00 | 0.00 | 0.00 | |||
| 20260903155957 | 11 | 118 | 4.8 | 9.7 | 0.00 | 0.00 | 0.05 | 88 | 1008.1 |
| 20260903155742 | -17 | 0.0 | 0.0 | 0.00 | 0.00 | 0.00 | |||
| 20260903155458 | 11 | 117 | 4.8 | 8.0 | 0.00 | 0.00 | 0.05 | 88 | 1008.1 |
| 20260903155242 | -17 | 0.0 | 0.0 | 0.00 | 0.00 | 0.00 | |||
| 20260903154957 | 11 | 119 | 6.4 | 9.7 | 0.00 | 0.00 | 0.05 | 89 | 1008.1 |
| 20260903154737 | -17 | 0.0 | 0.0 | 0.00 | 0.00 | 0.00 | |||
| 20260903154458 | 11 | 124 | 6.4 | 11.3 | 0.00 | 0.00 | 0.05 | 89 | 1008.1 |
| 20260903154236 | -17 | 0.0 | 0.0 | 0.00 | 0.00 | 0.00 | |||
| 20260903153957 | 11 | 117 | 6.4 | 9.7 | 0.00 | 0.00 | 0.05 | 89 | 1008.1 |
| 20260903153742 | -17 | 0.0 | 0.0 | 0.00 | 0.00 | 0.00 | |||
| 20260903153458 | 11 | 121 | 8.0 | 12.9 | 0.00 | 0.00 | 0.05 | 89 | 1008.0 |
| 20260903153243 | -17 | 0.0 | 0.0 | 0.00 | 0.00 | 0.00 | |||
| 20260903152957 | 11 | 134 | 6.4 | 11.3 | 0.00 | 0.00 | 0.05 | 89 | 1007.9 |
| 20260903152736 | -17 | 0.0 | 0.0 | 0.00 | 0.00 | 0.00 | |||
| 20260903152458 | 11 | 114 | 9.7 | 14.5 | 0.00 | 0.00 | 0.05 | 89 | 1007.9 |
| 20260903152236 | -17 | 0.0 | 0.0 | 0.00 | 0.00 | 0.00 | |||
| 20260903151958 | 11 | 121 | 8.0 | 9.7 | 0.00 | 0.00 | 0.05 | 90 | 1007.8 |
| 20260903151736 | -17 | 0.0 | 0.0 | 0.00 | 0.00 | 0.00 | |||
| 20260903151504 | 11 | 114 | 9.7 | 11.3 | 0.00 | 0.00 | 0.05 | 90 | 1007.8 |
| 20260903151237 | -17 | 0.0 | 0.0 | 0.00 | 0.00 | 0.00 | |||
| 20260903150958 | 11 | 116 | 9.7 | 11.3 | 0.00 | 0.00 | 0.05 | 91 | 1007.8 |
| 20260903150736 | -17 | 0.0 | 0.0 | 0.00 | 0.00 | 0.00 | |||
| 20260903150458 | 11 | 117 | 9.7 | 12.9 | 0.00 | 0.00 | 0.05 | 91 | 1007.8 |
| 20260903150236 | -17 | 0.0 | 0.0 | 0.00 | 0.00 | 0.00 | |||
| 20260903145959 | 11 | 110 | 11.3 | 16.1 | 0.00 | 0.00 | 0.05 | 91 | 1007.8 |
| 20260903145737 | -17 | 0.0 | 0.0 | 0.00 | 0.00 | 0.00 | |||
| 20260903145458 | 11 | 108 | 11.3 | 17.7 | 0.03 | 0.00 | 0.05 | 92 | 1007.7 |
| 20260903145237 | -17 | 0.0 | 0.0 | 0.00 | 0.00 | 0.00 | |||
| 20260903144957 | 11 | 121 | 9.7 | 12.9 | 0.03 | 0.00 | 0.05 | 93 | 1007.6 |
| 20260903144736 | -17 | 0.0 | 0.0 | 0.00 | 0.00 | 0.00 | |||
| 20260903144459 | 11 | 127 | 11.3 | 14.5 | 0.03 | 0.00 | 0.05 | 93 | 1007.6 |
| 20260903144232 | -17 | 0.0 | 0.0 | 0.00 | 0.00 | 0.00 | |||
| 20260903143957 | 11 | 122 | 9.7 | 11.3 | 0.03 | 0.00 | 0.05 | 94 | 1007.5 |
| 20260903143731 | -17 | 0.0 | 0.0 | 0.00 | 0.00 | 0.00 | |||
| 20260903143459 | 10 | 113 | 11.3 | 14.5 | 0.03 | 0.00 | 0.05 | 95 | 1007.4 |
| 20260903143232 | -17 | 0.0 | 0.0 | 0.00 | 0.00 | 0.00 | |||
| 20260903142959 | 10 | 123 | 9.7 | 12.9 | 0.03 | 0.00 | 0.05 | 95 | 1007.4 |
| 20260903142732 | -17 | 0.0 | 0.0 | 0.00 | 0.00 | 0.00 | |||
| 20260903142458 | 10 | 121 | 11.3 | 14.5 | 0.05 | 0.00 | 0.05 | 95 | 1007.4 |
| 20260903142231 | -17 | 0.0 | 0.0 | 0.00 | 0.00 | 0.00 | |||
| 20260903141957 | 10 | 116 | 11.3 | 14.5 | 0.05 | 0.00 | 0.05 | 95 | 1007.3 |
| 20260903141732 | -17 | 0.0 | 0.0 | 0.00 | 0.00 | 0.00 | |||
| 20260903141458 | 10 | 125 | 9.7 | 12.9 | 0.05 | 0.00 | 0.05 | 95 | 1007.3 |
| 20260903141233 | -17 | 0.0 | 0.0 | 0.00 | 0.00 | 0.00 | |||
| 20260903140957 | 10 | 129 | 9.7 | 12.9 | 0.05 | 0.00 | 0.05 | 95 | 1007.2 |
| 20260903140729 | -17 | 0.0 | 0.0 | 0.00 | 0.00 | 0.00 | |||
| 20260903140458 | 10 | 122 | 9.7 | 12.9 | 0.05 | 0.00 | 0.05 | 95 | 1007.2 |
| 20260903140229 | -17 | 0.0 | 0.0 | 0.00 | 0.00 | 0.00 | |||
| 20260903140001 | 10 | 119 | 9.7 | 14.5 | 0.05 | 0.00 | 0.05 | 95 | 1007.2 |
| 20260903135729 | -17 | 0.0 | 0.0 | 0.00 | 0.00 | 0.00 | |||
| 20260903135500 | 10 | 122 | 9.7 | 14.5 | 0.03 | 0.00 | 0.05 | 95 | 1007.2 |
| 20260903135230 | -17 | 0.0 | 0.0 | 0.00 | 0.00 | 0.00 | |||
| 20260903134958 | 10 | 128 | 9.7 | 12.9 | 0.03 | 0.00 | 0.05 | 94 | 1007.3 |
| 20260903134458 | 10 | 122 | 11.3 | 14.5 | 0.03 | 0.00 | 0.03 | 94 | 1007.2 |
| 20260903134230 | -17 | 0.0 | 0.0 | 0.00 | 0.00 | 0.00 | |||
| 20260903133957 | 10 | 128 | 9.7 | 14.5 | 0.03 | 0.00 | 0.03 | 93 | 1007.1 |
| 20260903133729 | -17 | 0.0 | 0.0 | 0.00 | 0.00 | 0.00 | |||
| 20260903133458 | 10 | 124 | 11.3 | 12.9 | 0.00 | 0.00 | 0.03 | 93 | 1007.1 |
| 20260903133230 | -17 | 0.0 | 0.0 | 0.00 | 0.00 | 0.00 | |||
| 20260903132958 | 11 | 125 | 9.7 | 12.9 | 0.00 | 0.00 | 0.03 | 92 | 1007.0 |
| 20260903132458 | 11 | 126 | 9.7 | 12.9 | 0.00 | 0.00 | 0.00 | 90 | 1006.9 |
| 20260903132230 | -17 | 0.0 | 0.0 | 0.00 | 0.00 | 0.00 | |||
| 20260903131958 | 11 | 127 | 9.7 | 14.5 | 0.00 | 0.00 | 0.00 | 90 | 1006.9 |
| 20260903131730 | -17 | 0.0 | 0.0 | 0.00 | 0.00 | 0.00 | |||
| 20260903131457 | 11 | 122 | 9.7 | 12.9 | 0.00 | 0.00 | 0.00 | 88 | 1006.9 |
| 20260903131230 | -17 | 0.0 | 0.0 | 0.00 | 0.00 | 0.00 | |||
| 20260903130958 | 11 | 128 | 12.9 | 14.5 | 0.00 | 0.00 | 0.00 | 87 | 1006.8 |
| 20260903130728 | -17 | 0.0 | 0.0 | 0.00 | 0.00 | 0.00 | |||
| 20260903130458 | 11 | 129 | 11.3 | 16.1 | 0.00 | 0.00 | 0.00 | 85 | 1006.8 |
| 20260903130227 | -17 | 0.0 | 0.0 | 0.00 | 0.00 | 0.00 | |||
| 20260903125958 | 11 | 128 | 9.7 | 12.9 | 0.00 | 0.00 | 0.00 | 85 | 1006.6 |
| 20260903125724 | -17 | 0.0 | 0.0 | 0.00 | 0.00 | 0.00 | |||
| 20260903125457 | 11 | 126 | 9.7 | 14.5 | 0.00 | 0.00 | 0.00 | 84 | 1006.4 |
| 20260903125224 | -17 | 0.0 | 0.0 | 0.00 | 0.00 | 0.00 | |||
| 20260903124958 | 11 | 125 | 9.7 | 14.5 | 0.00 | 0.00 | 0.00 | 84 | 1006.5 |
| 20260903124725 | -17 | 0.0 | 0.0 | 0.00 | 0.00 | 0.00 | |||
| 20260903124457 | 11 | 124 | 9.7 | 12.9 | 0.00 | 0.00 | 0.00 | 83 | 1006.4 |
| 20260903124227 | -17 | 0.0 | 0.0 | 0.00 | 0.00 | 0.00 | |||
| 20260903123958 | 11 | 127 | 9.7 | 19.3 | 0.00 | 0.00 | 0.00 | 83 | 1006.4 |
| 20260903123725 | -17 | 0.0 | 0.0 | 0.00 | 0.00 | 0.00 | |||
| 20260903123457 | 12 | 128 | 9.7 | 14.5 | 0.00 | 0.00 | 0.00 | 83 | 1006.4 |
| 20260903123225 | -17 | 0.0 | 0.0 | 0.00 | 0.00 | 0.00 | |||
| 20260903122957 | 12 | 117 | 11.3 | 14.5 | 0.00 | 0.00 | 0.00 | 83 | 1006.4 |
| 20260903122725 | -17 | 0.0 | 0.0 | 0.00 | 0.00 | 0.00 | |||
| 20260903122458 | 12 | 117 | 9.7 | 12.9 | 0.00 | 0.00 | 0.00 | 83 | 1006.4 |
| 20260903122225 | -17 | 0.0 | 0.0 | 0.00 | 0.00 | 0.00 | |||
| 20260903121957 | 12 | 116 | 11.3 | 14.5 | 0.00 | 0.00 | 0.00 | 83 | 1006.4 |
| 20260903121725 | -17 | 0.0 | 0.0 | 0.00 | 0.00 | 0.00 | |||
| 20260903121458 | 12 | 120 | 9.7 | 14.5 | 0.00 | 0.00 | 0.00 | 83 | 1006.1 |
| 20260903121225 | -17 | 0.0 | 0.0 | 0.00 | 0.00 | 0.00 | |||
| 20260903120957 | 12 | 120 | 9.7 | 12.9 | 0.00 | 0.00 | 0.00 | 83 | 1006.2 |
| 20260903120457 | 12 | 118 | 11.3 | 14.5 | 0.00 | 0.00 | 0.00 | 83 | 1006.2 |
| 20260903120223 | -17 | 0.0 | 0.0 | 0.00 | 0.00 | 0.00 | |||
| 20260903115958 | 12 | 121 | 11.3 | 14.5 | 0.00 | 0.00 | 0.00 | 83 | 1006.2 |
| 20260903115722 | -17 | 0.0 | 0.0 | 0.00 | 0.00 | 0.00 | |||
| 20260903115458 | 12 | 117 | 9.7 | 14.5 | 0.00 | 0.00 | 0.00 | 83 | 1006.2 |
| 20260903115222 | -17 | 0.0 | 0.0 | 0.00 | 0.00 | 0.00 | |||
| 20260903114957 | 12 | 122 | 8.0 | 12.9 | 0.00 | 0.00 | 0.00 | 83 | 1006.2 |
| 20260903114722 | -17 | 0.0 | 0.0 | 0.00 | 0.00 | 0.00 | |||
| 20260903114457 | 12 | 125 | 11.3 | 17.7 | 0.00 | 0.00 | 0.00 | 82 | 1006.2 |
| 20260903114222 | -17 | 0.0 | 0.0 | 0.00 | 0.00 | 0.00 | |||
| 20260903113957 | 12 | 121 | 11.3 | 16.1 | 0.00 | 0.00 | 0.00 | 83 | 1006.2 |
| 20260903113723 | -17 | 0.0 | 0.0 | 0.00 | 0.00 | 0.00 | |||
| 20260903113458 | 12 | 128 | 9.7 | 12.9 | 0.00 | 0.00 | 0.00 | 82 | 1006.2 |
| 20260903113223 | -17 | 0.0 | 0.0 | 0.00 | 0.00 | 0.00 | |||
| 20260903112957 | 12 | 123 | 11.3 | 14.5 | 0.00 | 0.00 | 0.00 | 82 | 1006.2 |
| 20260903112723 | -17 | 0.0 | 0.0 | 0.00 | 0.00 | 0.00 | |||
| 20260903112457 | 12 | 120 | 11.3 | 14.5 | 0.00 | 0.00 | 0.00 | 82 | 1006.2 |
| 20260903112223 | -17 | 0.0 | 0.0 | 0.00 | 0.00 | 0.00 | |||
| 20260903112003 | 12 | 116 | 9.7 | 17.7 | 0.00 | 0.00 | 0.00 | 82 | 1005.6 |
| 20260903111723 | -17 | 0.0 | 0.0 | 0.00 | 0.00 | 0.00 | |||
| 20260903111458 | 12 | 120 | 11.3 | 14.5 | 0.00 | 0.00 | 0.00 | 82 | 1005.5 |
| 20260903110957 | 12 | 116 | 12.9 | 14.5 | 0.00 | 0.00 | 0.00 | 82 | 1005.4 |
| 20260903110457 | 12 | 121 | 11.3 | 17.7 | 0.00 | 0.00 | 0.00 | 82 | 1005.4 |
| 20260903105957 | 12 | 118 | 11.3 | 14.5 | 0.00 | 0.00 | 0.00 | 82 | 1005.4 |
| 20260903105720 | -17 | 0.0 | 0.0 | 0.00 | 0.00 | 0.00 | |||
| 20260903105458 | 12 | 116 | 11.3 | 14.5 | 0.00 | 0.00 | 0.00 | 82 | 1005.4 |
| 20260903105221 | -17 | 0.0 | 0.0 | 0.00 | 0.00 | 0.00 | |||
| 20260903104957 | 12 | 112 | 12.9 | 16.1 | 0.00 | 0.00 | 0.00 | 82 | 1005.5 |
| 20260903104720 | -17 | 0.0 | 0.0 | 0.00 | 0.00 | 0.00 | |||
| 20260903104457 | 12 | 113 | 11.3 | 14.5 | 0.00 | 0.00 | 0.00 | 82 | 1005.5 |
| 20260903104221 | -17 | 0.0 | 0.0 | 0.00 | 0.00 | 0.00 | |||
| 20260903103957 | 12 | 116 | 11.3 | 14.5 | 0.00 | 0.00 | 0.00 | 82 | 1005.5 |
| 20260903103458 | 12 | 113 | 11.3 | 14.5 | 0.00 | 0.00 | 0.00 | 82 | 1005.5 |
| 20260903103221 | -17 | 0.0 | 0.0 | 0.00 | 0.00 | 0.00 | |||
| 20260903102957 | 12 | 123 | 11.3 | 14.5 | 0.00 | 0.00 | 0.00 | 82 | 1005.4 |
| 20260903102721 | -17 | 0.0 | 0.0 | 0.00 | 0.00 | 0.00 | |||
| 20260903102457 | 12 | 126 | 11.3 | 14.5 | 0.00 | 0.00 | 0.00 | 82 | 1005.3 |
| 20260903102221 | -17 | 0.0 | 0.0 | 0.00 | 0.00 | 0.00 | |||
| 20260903101957 | 12 | 116 | 11.3 | 14.5 | 0.00 | 0.00 | 0.00 | 82 | 1005.2 |
| 20260903101721 | -17 | 0.0 | 0.0 | 0.00 | 0.00 | 0.00 | |||
| 20260903101500 | 12 | 120 | 11.3 | 14.5 | 0.00 | 0.00 | 0.00 | 82 | 1005.3 |
| 20260903101222 | -17 | 0.0 | 0.0 | 0.00 | 0.00 | 0.00 | |||
| 20260903100957 | 12 | 119 | 11.3 | 16.1 | 0.00 | 0.00 | 0.00 | 82 | 1005.4 |
| 20260903100718 | -17 | 0.0 | 0.0 | 0.00 | 0.00 | 0.00 | |||
| 20260903100459 | 12 | 115 | 14.5 | 17.7 | 0.00 | 0.00 | 0.00 | 82 | 1005.5 |
| 20260903100218 | -17 | 0.0 | 0.0 | 0.00 | 0.00 | 0.00 | |||
| 20260903095957 | 12 | 116 | 11.3 | 16.1 | 0.00 | 0.00 | 0.00 | 82 | 1005.4 |
| 20260903095719 | -17 | 0.0 | 0.0 | 0.00 | 0.00 | 0.00 | |||
| 20260903095457 | 12 | 116 | 12.9 | 17.7 | 0.00 | 0.00 | 0.00 | 82 | 1005.5 |
| 20260903094957 | 12 | 116 | 14.5 | 19.3 | 0.00 | 0.00 | 0.00 | 82 | 1005.4 |
| 20260903094724 | -17 | 0.0 | 0.0 | 0.00 | 0.00 | 0.00 | |||
| 20260903094457 | 12 | 117 | 11.3 | 19.3 | 0.00 | 0.00 | 0.00 | 82 | 1005.4 |
| 20260903094221 | -17 | 0.0 | 0.0 | 0.00 | 0.00 | 0.00 | |||
| 20260903093957 | 12 | 114 | 12.9 | 17.7 | 0.00 | 0.00 | 0.00 | 82 | 1005.4 |
| 20260903093719 | -17 | 0.0 | 0.0 | 0.00 | 0.00 | 0.00 | |||
| 20260903093457 | 12 | 113 | 14.5 | 19.3 | 0.00 | 0.00 | 0.00 | 82 | 1005.4 |
| 20260903093219 | -17 | 0.0 | 0.0 | 0.00 | 0.00 | 0.00 | |||
| 20260903093000 | 12 | 117 | 12.9 | 20.9 | 0.00 | 0.00 | 0.00 | 82 | 1005.2 |
| 20260903092719 | -17 | 0.0 | 0.0 | 0.00 | 0.00 | 0.00 | |||
| 20260903092457 | 12 | 106 | 16.1 | 24.1 | 0.00 | 0.00 | 0.00 | 83 | 1005.3 |
| 20260903092219 | -17 | 0.0 | 0.0 | 0.00 | 0.00 | 0.00 | |||
| 20260903091957 | 12 | 115 | 11.3 | 14.5 | 0.00 | 0.00 | 0.00 | 83 | 1005.3 |
| 20260903091719 | -17 | 0.0 | 0.0 | 0.00 | 0.00 | 0.00 | |||
| 20260903091457 | 12 | 110 | 12.9 | 14.5 | 0.00 | 0.00 | 0.00 | 83 | 1005.2 |
| 20260903091220 | -17 | 0.0 | 0.0 | 0.00 | 0.00 | 0.00 | |||
| 20260903090957 | 12 | 107 | 11.3 | 16.1 | 0.00 | 0.00 | 0.00 | 84 | 1005.2 |
| 20260903090719 | -17 | 0.0 | 0.0 | 0.00 | 0.00 | 0.00 | |||
| 20260903090457 | 12 | 114 | 11.3 | 14.5 | 0.00 | 0.00 | 0.00 | 84 | 1005.2 |
| 20260903090219 | -17 | 0.0 | 0.0 | 0.00 | 0.00 | 0.00 | |||
| 20260903085958 | 12 | 111 | 11.3 | 14.5 | 0.00 | 0.00 | 0.00 | 85 | 1005.2 |
| 20260903085717 | -17 | 0.0 | 0.0 | 0.00 | 0.00 | 0.00 | |||
| 20260903085457 | 12 | 113 | 11.3 | 14.5 | 0.00 | 0.00 | 0.00 | 84 | 1005.3 |
| 20260903085216 | -17 | 0.0 | 0.0 | 0.00 | 0.00 | 0.00 | |||
| 20260903084958 | 12 | 121 | 9.7 | 12.9 | 0.00 | 0.00 | 0.00 | 85 | 1005.3 |
| 20260903084716 | -17 | 0.0 | 0.0 | 0.00 | 0.00 | 0.00 | |||
| 20260903084457 | 12 | 116 | 11.3 | 14.5 | 0.00 | 0.00 | 0.00 | 85 | 1005.3 |
| 20260903084217 | -17 | 0.0 | 0.0 | 0.00 | 0.00 | 0.00 | |||
| 20260903083957 | 12 | 115 | 11.3 | 17.7 | 0.00 | 0.00 | 0.00 | 85 | 1005.3 |
| 20260903083716 | -17 | 0.0 | 0.0 | 0.00 | 0.00 | 0.00 | |||
| 20260903083457 | 12 | 117 | 9.7 | 12.9 | 0.00 | 0.00 | 0.00 | 85 | 1005.3 |
| 20260903083217 | -17 | 0.0 | 0.0 | 0.00 | 0.00 | 0.00 | |||
| 20260903082957 | 12 | 125 | 9.7 | 14.5 | 0.00 | 0.00 | 0.00 | 85 | 1005.4 |
| 20260903082717 | -17 | 0.0 | 0.0 | 0.00 | 0.00 | 0.00 | |||
| 20260903082457 | 12 | 117 | 8.0 | 12.9 | 0.00 | 0.00 | 0.00 | 85 | 1005.5 |
| 20260903082216 | -17 | 0.0 | 0.0 | 0.00 | 0.00 | 0.00 | |||
| 20260903081957 | 12 | 119 | 9.7 | 16.1 | 0.00 | 0.00 | 0.00 | 84 | 1005.5 |
| 20260903081716 | -17 | 0.0 | 0.0 | 0.00 | 0.00 | 0.00 | |||
| 20260903081457 | 12 | 112 | 9.7 | 14.5 | 0.00 | 0.00 | 0.00 | 84 | 1005.4 |
| 20260903081217 | -17 | 0.0 | 0.0 | 0.00 | 0.00 | 0.00 | |||
| 20260903080957 | 12 | 112 | 12.9 | 14.5 | 0.00 | 0.00 | 0.00 | 85 | 1005.4 |
| 20260903080717 | -17 | 0.0 | 0.0 | 0.00 | 0.00 | 0.00 | |||
| 20260903080459 | 12 | 114 | 9.7 | 14.5 | 0.00 | 0.00 | 0.00 | 85 | 1005.4 |
| 20260903075957 | 12 | 116 | 9.7 | 14.5 | 0.00 | 0.00 | 0.00 | 85 | 1005.4 |
| 20260903075715 | -17 | 0.0 | 0.0 | 0.00 | 0.00 | 0.00 | |||
| 20260903075458 | 12 | 113 | 8.0 | 12.9 | 0.00 | 0.00 | 0.00 | 85 | 1005.5 |
| 20260903075211 | -17 | 0.0 | 0.0 | 0.00 | 0.00 | 0.00 | |||
| 20260903074958 | 12 | 115 | 9.7 | 17.7 | 0.00 | 0.00 | 0.00 | 85 | 1005.5 |
| 20260903074711 | -17 | 0.0 | 0.0 | 0.00 | 0.00 | 0.00 | |||
| 20260903074458 | 12 | 113 | 11.3 | 14.5 | 0.00 | 0.00 | 0.00 | 85 | 1005.4 |
| 20260903073957 | 12 | 118 | 9.7 | 14.5 | 0.00 | 0.00 | 0.00 | 85 | 1005.4 |
| 20260903073711 | -17 | 0.0 | 0.0 | 0.00 | 0.00 | 0.00 | |||
| 20260903073457 | 12 | 108 | 12.9 | 16.1 | 0.00 | 0.00 | 0.00 | 86 | 1005.3 |
| 20260903072957 | 12 | 114 | 11.3 | 16.1 | 0.00 | 0.00 | 0.00 | 87 | 1005.4 |
| 20260903072712 | -17 | 0.0 | 0.0 | 0.00 | 0.00 | 0.00 | |||
| 20260903072457 | 12 | 114 | 9.7 | 14.5 | 0.00 | 0.00 | 0.00 | 87 | 1005.4 |
| 20260903072211 | -17 | 0.0 | 0.0 | 0.00 | 0.00 | 0.00 | |||
| 20260903071957 | 12 | 117 | 8.0 | 12.9 | 0.00 | 0.00 | 0.00 | 87 | 1005.4 |
| 20260903071712 | -17 | 0.0 | 0.0 | 0.00 | 0.00 | 0.00 | |||
| 20260903071459 | 12 | 121 | 9.7 | 14.5 | 0.00 | 0.00 | 0.00 | 86 | 1005.3 |
| 20260903070957 | 12 | 123 | 9.7 | 14.5 | 0.00 | 0.00 | 0.00 | 86 | 1005.3 |
| 20260903070712 | -17 | 0.0 | 0.0 | 0.00 | 0.00 | 0.00 | |||
| 20260903070458 | 12 | 113 | 9.7 | 12.9 | 0.00 | 0.00 | 0.00 | 86 | 1005.2 |
| 20260903070212 | -17 | 0.0 | 0.0 | 0.00 | 0.00 | 0.00 | |||
| 20260903065957 | 12 | 116 | 9.7 | 14.5 | 0.00 | 0.00 | 0.15 | 85 | 1005.2 |
| 20260903065709 | -17 | 0.0 | 0.0 | 0.00 | 0.00 | 0.00 | |||
| 20260903065458 | 12 | 102 | 11.3 | 16.1 | 0.00 | 0.00 | 0.15 | 85 | 1005.2 |
| 20260903065209 | -17 | 0.0 | 0.0 | 0.00 | 0.00 | 0.00 | |||
| 20260903064958 | 12 | 114 | 9.7 | 12.9 | 0.00 | 0.00 | 0.15 | 86 | 1005.3 |
| 20260903064709 | -17 | 0.0 | 0.0 | 0.00 | 0.00 | 0.00 | |||
| 20260903064457 | 12 | 115 | 9.7 | 11.3 | 0.00 | 0.00 | 0.15 | 86 | 1005.3 |
| 20260903064205 | -17 | 0.0 | 0.0 | 0.00 | 0.00 | 0.00 | |||
| 20260903063957 | 12 | 111 | 11.3 | 14.5 | 0.00 | 0.00 | 0.15 | 86 | 1005.2 |
| 20260903063704 | -17 | 0.0 | 0.0 | 0.00 | 0.00 | 0.00 | |||
| 20260903063457 | 12 | 109 | 11.3 | 14.5 | 0.00 | 0.00 | 0.15 | 86 | 1005.2 |
| 20260903063204 | -17 | 0.0 | 0.0 | 0.00 | 0.00 | 0.00 | |||
| 20260903062957 | 12 | 108 | 9.7 | 14.5 | 0.00 | 0.00 | 0.15 | 87 | 1005.3 |
| 20260903062704 | -17 | 0.0 | 0.0 | 0.00 | 0.00 | 0.00 | |||
| 20260903062457 | 12 | 112 | 9.7 | 14.5 | 0.00 | 0.00 | 0.15 | 87 | 1005.3 |
| 20260903062205 | -17 | 0.0 | 0.0 | 0.00 | 0.00 | 0.00 | |||
| 20260903061957 | 12 | 117 | 8.0 | 11.3 | 0.00 | 0.00 | 0.15 | 88 | 1005.4 |
| 20260903061458 | 12 | 120 | 8.0 | 11.3 | 0.00 | 0.00 | 0.15 | 89 | 1005.4 |
| 20260903061205 | -17 | 0.0 | 0.0 | 0.00 | 0.00 | 0.00 | |||
| 20260903060959 | 12 | 115 | 9.7 | 14.5 | 0.00 | 0.00 | 0.15 | 89 | 1005.3 |
| 20260903060704 | -17 | 0.0 | 0.0 | 0.00 | 0.00 | 0.00 | |||
| 20260903060458 | 12 | 117 | 9.7 | 12.9 | 0.00 | 0.00 | 0.15 | 89 | 1005.3 |
| 20260903060205 | -17 | 0.0 | 0.0 | 0.00 | 0.00 | 0.00 | |||
| 20260903055957 | 12 | 120 | 9.7 | 12.9 | 0.00 | 0.00 | 0.15 | 89 | 1005.3 |
| 20260903055705 | -17 | 0.0 | 0.0 | 0.00 | 0.00 | 0.00 | |||
| 20260903055458 | 12 | 108 | 9.7 | 14.5 | 0.00 | 0.00 | 0.15 | 89 | 1005.4 |
| 20260903055000 | 12 | 113 | 9.7 | 12.9 | 0.00 | 0.00 | 0.15 | 89 | 1005.4 |
| 20260903054702 | -17 | 0.0 | 0.0 | 0.00 | 0.00 | 0.00 | |||
| 20260903054458 | 12 | 113 | 9.7 | 12.9 | 0.00 | 0.00 | 0.15 | 89 | 1005.4 |
| 20260903053957 | 12 | 110 | 11.3 | 16.1 | 0.00 | 0.00 | 0.15 | 89 | 1005.4 |
| 20260903053659 | -17 | 0.0 | 0.0 | 0.00 | 0.00 | 0.00 | |||
| 20260903053457 | 12 | 120 | 11.3 | 14.5 | 0.00 | 0.00 | 0.15 | 90 | 1005.4 |
| 20260903053200 | -17 | 0.0 | 0.0 | 0.00 | 0.00 | 0.00 | |||
| 20260903052957 | 12 | 112 | 9.7 | 11.3 | 0.00 | 0.00 | 0.15 | 90 | 1005.4 |
| 20260903052700 | -17 | 0.0 | 0.0 | 0.00 | 0.00 | 0.00 | |||
| 20260903052501 | 11 | 114 | 9.7 | 12.9 | 0.00 | 0.00 | 0.15 | 90 | 1005.4 |
| 20260903052159 | -17 | 0.0 | 0.0 | 0.00 | 0.00 | 0.00 | |||
| 20260903051958 | 11 | 126 | 8.0 | 12.9 | 0.00 | 0.00 | 0.15 | 90 | 1005.3 |
| 20260903051700 | -17 | 0.0 | 0.0 | 0.00 | 0.00 | 0.00 | |||
| 20260903051458 | 11 | 114 | 9.7 | 12.9 | 0.00 | 0.00 | 0.15 | 91 | 1005.2 |
| 20260903051200 | -17 | 0.0 | 0.0 | 0.00 | 0.00 | 0.00 | |||
| 20260903050957 | 11 | 117 | 9.7 | 11.3 | 0.00 | 0.00 | 0.15 | 91 | 1005.2 |
| 20260903050701 | -17 | 0.0 | 0.0 | 0.00 | 0.00 | 0.00 | |||
| 20260903050457 | 11 | 122 | 9.7 | 11.3 | 0.00 | 0.00 | 0.15 | 91 | 1005.1 |
| 20260903050200 | -17 | 0.0 | 0.0 | 0.00 | 0.00 | 0.00 | |||
| 20260903045957 | 11 | 116 | 8.0 | 11.3 | 0.00 | 0.00 | 0.15 | 90 | 1005.0 |
| 20260903045700 | -17 | 0.0 | 0.0 | 0.00 | 0.00 | 0.00 | |||
| 20260903045458 | 11 | 115 | 11.3 | 16.1 | 0.00 | 0.00 | 0.15 | 91 | 1005.0 |
| 20260903045200 | -17 | 0.0 | 0.0 | 0.00 | 0.00 | 0.00 | |||
| 20260903044958 | 11 | 117 | 8.0 | 12.9 | 0.00 | 0.00 | 0.15 | 90 | 1005.1 |
| 20260903044657 | -17 | 0.0 | 0.0 | 0.00 | 0.00 | 0.00 | |||
| 20260903044458 | 11 | 121 | 9.7 | 11.3 | 0.00 | 0.00 | 0.15 | 90 | 1005.0 |
| 20260903044157 | -17 | 0.0 | 0.0 | 0.00 | 0.00 | 0.00 | |||
| 20260903043958 | 11 | 122 | 11.3 | 14.5 | 0.00 | 0.00 | 0.15 | 90 | 1005.0 |
| 20260903043658 | -17 | 0.0 | 0.0 | 0.00 | 0.00 | 0.00 | |||
| 20260903043458 | 11 | 123 | 9.7 | 12.9 | 0.00 | 0.00 | 0.15 | 90 | 1004.9 |
| 20260903043157 | -17 | 0.0 | 0.0 | 0.00 | 0.00 | 0.00 | |||
| 20260903042957 | 11 | 110 | 11.3 | 14.5 | 0.00 | 0.00 | 0.15 | 90 | 1004.8 |
| 20260903042658 | -17 | 0.0 | 0.0 | 0.00 | 0.00 | 0.00 | |||
| 20260903042458 | 11 | 104 | 11.3 | 14.5 | 0.00 | 0.00 | 0.15 | 90 | 1004.8 |
| 20260903042157 | -17 | 0.0 | 0.0 | 0.00 | 0.00 | 0.00 | |||
| 20260903041957 | 12 | 110 | 8.0 | 9.7 | 0.00 | 0.00 | 0.15 | 89 | 1004.9 |
| 20260903041658 | -17 | 0.0 | 0.0 | 0.00 | 0.00 | 0.00 | |||
| 20260903041458 | 12 | 111 | 9.7 | 11.3 | 0.00 | 0.00 | 0.15 | 89 | 1004.8 |
| 20260903041157 | -17 | 0.0 | 0.0 | 0.00 | 0.00 | 0.00 | |||
| 20260903040958 | 12 | 117 | 8.0 | 12.9 | 0.00 | 0.00 | 0.15 | 89 | 1004.7 |
| 20260903040457 | 12 | 112 | 9.7 | 12.9 | 0.00 | 0.00 | 0.15 | 88 | 1004.7 |
| 20260903040157 | -17 | 0.0 | 0.0 | 0.00 | 0.00 | 0.00 | |||
| 20260903035958 | 12 | 110 | 9.7 | 12.9 | 0.00 | 0.00 | 0.15 | 89 | 1004.6 |
| 20260903035658 | -17 | 0.0 | 0.0 | 0.00 | 0.00 | 0.00 | |||
| 20260903035457 | 12 | 111 | 9.7 | 14.5 | 0.00 | 0.00 | 0.15 | 89 | 1004.4 |
| 20260903035158 | -17 | 0.0 | 0.0 | 0.00 | 0.00 | 0.00 | |||
| 20260903034957 | 12 | 114 | 8.0 | 11.3 | 0.00 | 0.00 | 0.15 | 89 | 1004.3 |
| 20260903034700 | -17 | 0.0 | 0.0 | 0.00 | 0.00 | 0.00 | |||
| 20260903034458 | 12 | 120 | 6.4 | 9.7 | 0.00 | 0.00 | 0.15 | 89 | 1004.3 |
| 20260903034156 | -17 | 0.0 | 0.0 | 0.00 | 0.00 | 0.00 | |||
| 20260903033957 | 12 | 115 | 6.4 | 9.7 | 0.00 | 0.00 | 0.15 | 89 | 1004.2 |
| 20260903033656 | -17 | 0.0 | 0.0 | 0.00 | 0.00 | 0.00 | |||
| 20260903033457 | 12 | 116 | 8.0 | 11.3 | 0.00 | 0.00 | 0.15 | 88 | 1004.2 |
| 20260903033156 | -17 | 0.0 | 0.0 | 0.00 | 0.00 | 0.00 | |||
| 20260903033003 | 12 | 111 | 9.7 | 12.9 | 0.00 | 0.00 | 0.15 | 88 | 1004.1 |
| 20260903032655 | -17 | 0.0 | 0.0 | 0.00 | 0.00 | 0.00 | |||
| 20260903032457 | 12 | 120 | 9.7 | 12.9 | 0.00 | 0.00 | 0.15 | 88 | 1003.9 |
| 20260903032200 | -17 | 0.0 | 0.0 | 0.00 | 0.00 | 0.00 | |||
| 20260903031957 | 12 | 120 | 9.7 | 12.9 | 0.00 | 0.00 | 0.15 | 87 | 1004.0 |
| 20260903031656 | -17 | 0.0 | 0.0 | 0.00 | 0.00 | 0.00 | |||
| 20260903031457 | 12 | 118 | 8.0 | 11.3 | 0.00 | 0.00 | 0.15 | 87 | 1003.9 |
| 20260903030958 | 12 | 129 | 9.7 | 11.3 | 0.00 | 0.00 | 0.15 | 87 | 1003.7 |
| 20260903030656 | -17 | 0.0 | 0.0 | 0.00 | 0.00 | 0.00 | |||
| 20260903030457 | 12 | 123 | 8.0 | 12.9 | 0.00 | 0.00 | 0.15 | 87 | 1003.6 |
| 20260903025957 | 12 | 126 | 8.0 | 9.7 | 0.00 | 0.00 | 0.15 | 86 | 1003.4 |
| 20260903025459 | 12 | 125 | 12.9 | 17.7 | 0.00 | 0.00 | 0.15 | 86 | 1003.3 |
| 20260903025156 | -17 | 0.0 | 0.0 | 0.00 | 0.00 | 0.00 | |||
| 20260903024958 | 13 | 127 | 11.3 | 14.5 | 0.00 | 0.00 | 0.15 | 87 | 1003.1 |
| 20260903024653 | -17 | 0.0 | 0.0 | 0.00 | 0.00 | 0.00 | |||
| 20260903024457 | 13 | 132 | 9.7 | 11.3 | 0.00 | 0.00 | 0.15 | 87 | 1002.8 |
| 20260903024153 | -17 | 0.0 | 0.0 | 0.00 | 0.00 | 0.00 | |||
| 20260903023957 | 13 | 125 | 12.9 | 16.1 | 0.00 | 0.00 | 0.15 | 87 | 1002.5 |
| 20260903023653 | -17 | 0.0 | 0.0 | 0.00 | 0.00 | 0.00 | |||
| 20260903023458 | 13 | 122 | 11.3 | 14.5 | 0.00 | 0.00 | 0.15 | 87 | 1002.4 |
| 20260903023154 | -17 | 0.0 | 0.0 | 0.00 | 0.00 | 0.00 | |||
| 20260903022959 | 13 | 124 | 9.7 | 12.9 | 0.00 | 0.00 | 0.15 | 87 | 1002.3 |
| 20260903022653 | -17 | 0.0 | 0.0 | 0.00 | 0.00 | 0.00 | |||
| 20260903022457 | 13 | 129 | 11.3 | 16.1 | 0.00 | 0.00 | 0.15 | 87 | 1002.1 |
| 20260903022154 | -17 | 0.0 | 0.0 | 0.00 | 0.00 | 0.00 | |||
| 20260903021957 | 13 | 128 | 12.9 | 17.7 | 0.00 | 0.00 | 0.15 | 88 | 1002.0 |
| 20260903021653 | -17 | 0.0 | 0.0 | 0.00 | 0.00 | 0.00 | |||
| 20260903021457 | 13 | 117 | 14.5 | 19.3 | 0.00 | 0.00 | 0.15 | 87 | 1001.9 |
| 20260903021153 | -17 | 0.0 | 0.0 | 0.00 | 0.00 | 0.00 | |||
| 20260903020958 | 13 | 121 | 12.9 | 14.5 | 0.00 | 0.00 | 0.15 | 87 | 1001.8 |
| 20260903020654 | -17 | 0.0 | 0.0 | 0.00 | 0.00 | 0.00 | |||
| 20260903020457 | 13 | 115 | 14.5 | 17.7 | 0.00 | 0.00 | 0.15 | 87 | 1001.7 |
| 20260903020154 | -17 | 0.0 | 0.0 | 0.00 | 0.00 | 0.00 | |||
| 20260903015957 | 13 | 116 | 12.9 | 17.7 | 0.00 | 0.00 | 0.15 | 87 | 1001.5 |
| 20260903015652 | -17 | 0.0 | 0.0 | 0.00 | 0.00 | 0.00 | |||
| 20260903015457 | 13 | 125 | 12.9 | 16.1 | 0.00 | 0.00 | 0.15 | 87 | 1001.6 |
| 20260903015152 | -17 | 0.0 | 0.0 | 0.00 | 0.00 | 0.00 | |||
| 20260903014957 | 13 | 125 | 12.9 | 16.1 | 0.00 | 0.00 | 0.15 | 87 | 1001.4 |
| 20260903014652 | -17 | 0.0 | 0.0 | 0.00 | 0.00 | 0.00 | |||
| 20260903014457 | 13 | 122 | 12.9 | 17.7 | 0.00 | 0.00 | 0.15 | 87 | 1001.4 |
| 20260903014156 | -17 | 0.0 | 0.0 | 0.00 | 0.00 | 0.00 | |||
| 20260903013958 | 12 | 125 | 12.9 | 17.7 | 0.00 | 0.00 | 0.15 | 87 | 1001.1 |
| 20260903013650 | -17 | 0.0 | 0.0 | 0.00 | 0.00 | 0.00 | |||
| 20260903013457 | 13 | 120 | 12.9 | 19.3 | 0.03 | 0.00 | 0.15 | 87 | 1001.1 |
| 20260903012957 | 12 | 130 | 14.5 | 20.9 | 0.03 | 0.00 | 0.15 | 88 | 1000.8 |
| 20260903012650 | -17 | 0.0 | 0.0 | 0.00 | 0.00 | 0.00 | |||
| 20260903012458 | 12 | 120 | 14.5 | 20.9 | 0.10 | 0.00 | 0.15 | 87 | 1000.7 |
| 20260903012151 | -17 | 0.0 | 0.0 | 0.00 | 0.00 | 0.00 | |||
| 20260903011957 | 12 | 114 | 12.9 | 17.7 | 0.10 | 0.00 | 0.20 | 88 | 1000.9 |
| 20260903011650 | -17 | 0.0 | 0.0 | 0.00 | 0.00 | 0.00 | |||
| 20260903011457 | 12 | 116 | 12.9 | 16.1 | 0.10 | 0.00 | 0.20 | 89 | 1000.8 |
| 20260903011150 | -17 | 0.0 | 0.0 | 0.00 | 0.00 | 0.00 | |||
| 20260903010958 | 12 | 116 | 12.9 | 19.3 | 0.13 | 0.00 | 0.20 | 89 | 1000.9 |
| 20260903010651 | -17 | 0.0 | 0.0 | 0.00 | 0.00 | 0.00 | |||
| 20260903010457 | 12 | 124 | 14.5 | 24.1 | 0.15 | 0.00 | 0.18 | 89 | 1000.9 |
| 20260903010150 | -17 | 0.0 | 0.0 | 0.00 | 0.00 | 0.00 | |||
| 20260903005957 | 12 | 123 | 12.9 | 14.5 | 0.15 | 0.00 | 0.20 | 90 | 1000.9 |
| 20260903005653 | -17 | 0.0 | 0.0 | 0.00 | 0.00 | 0.00 | |||
| 20260903005457 | 12 | 113 | 16.1 | 20.9 | 0.13 | 0.00 | 0.20 | 90 | 1001.0 |
| 20260903005150 | -17 | 0.0 | 0.0 | 0.00 | 0.00 | 0.00 | |||
| 20260903004957 | 12 | 119 | 12.9 | 20.9 | 0.15 | 0.00 | 0.18 | 92 | 1001.1 |
| 20260903004650 | -17 | 0.0 | 0.0 | 0.00 | 0.00 | 0.00 | |||
| 20260903004457 | 12 | 115 | 14.5 | 17.7 | 0.15 | 0.00 | 0.18 | 93 | 1001.1 |
| 20260903004155 | -17 | 0.0 | 0.0 | 0.00 | 0.00 | 0.00 | |||
| 20260903003957 | 12 | 116 | 14.5 | 19.3 | 0.13 | 0.00 | 0.18 | 93 | 1001.4 |
| 20260903003650 | -17 | 0.0 | 0.0 | 0.00 | 0.00 | 0.00 | |||
| 20260903003457 | 11 | 120 | 14.5 | 19.3 | 0.13 | 0.00 | 0.15 | 94 | 1001.3 |
| 20260903003152 | -17 | 0.0 | 0.0 | 0.00 | 0.00 | 0.00 | |||
| 20260903002958 | 11 | 118 | 16.1 | 24.1 | 0.18 | 0.00 | 0.15 | 94 | 1001.3 |
| 20260903002650 | -17 | 0.0 | 0.0 | 0.00 | 0.00 | 0.00 | |||
| 20260903002457 | 11 | 119 | 14.5 | 17.7 | 0.18 | 0.00 | 0.13 | 94 | 1001.4 |
| 20260903002000 | 11 | 118 | 14.5 | 19.3 | 0.13 | 0.00 | 0.15 | 94 | 1001.5 |
| 20260903001650 | -17 | 0.0 | 0.0 | 0.00 | 0.00 | 0.00 | |||
| 20260903001457 | 12 | 120 | 14.5 | 19.3 | 0.13 | 0.00 | 0.13 | 93 | 1001.4 |
| 20260903001155 | -17 | 0.0 | 0.0 | 0.00 | 0.00 | 0.00 | |||
| 20260903000957 | 12 | 116 | 14.5 | 17.7 | 0.13 | 0.00 | 0.13 | 93 | 1001.4 |
| 20260903000457 | 12 | 116 | 17.7 | 24.1 | 0.08 | 0.00 | 0.08 | 92 | 1001.3 |
| 20260902235957 | 12 | 119 | 12.9 | 16.1 | 0.08 | 0.00 | 0.08 | 92 | 1001.4 |
| 20260902235655 | -17 | 0.0 | 0.0 | 0.00 | 0.00 | 0.00 | |||
| 20260902235458 | 12 | 116 | 14.5 | 17.7 | 0.05 | 0.00 | 0.08 | 92 | 1001.5 |
| 20260902235155 | -17 | 0.0 | 0.0 | 0.00 | 0.00 | 0.00 | |||
| 20260902234959 | 12 | 121 | 12.9 | 20.9 | 0.05 | 0.00 | 0.05 | 91 | 1001.4 |
| 20260902234647 | -17 | 0.0 | 0.0 | 0.00 | 0.00 | 0.00 | |||
| 20260902234457 | 12 | 126 | 14.5 | 17.7 | 0.03 | 0.00 | 0.05 | 89 | 1001.5 |
| 20260902234148 | -17 | 0.0 | 0.0 | 0.00 | 0.00 | 0.00 | |||
| 20260902233957 | 12 | 127 | 12.9 | 19.3 | 0.03 | 0.00 | 0.03 | 88 | 1001.7 |
| 20260902233647 | -17 | 0.0 | 0.0 | 0.00 | 0.00 | 0.00 | |||
| 20260902233457 | 13 | 121 | 12.9 | 14.5 | 0.03 | 0.00 | 0.03 | 86 | 1001.6 |
| 20260902232957 | 13 | 124 | 12.9 | 19.3 | 0.00 | 0.00 | 0.03 | 83 | 1001.8 |
| 20260902232701 | -17 | 0.0 | 0.0 | 0.00 | 0.00 | 0.00 | |||
| 20260902232457 | 13 | 128 | 9.7 | 14.5 | 0.00 | 0.00 | 0.00 | 82 | 1001.9 |
| 20260902232147 | -17 | 0.0 | 0.0 | 0.00 | 0.00 | 0.00 | |||
| 20260902231957 | 13 | 126 | 14.5 | 17.7 | 0.00 | 0.00 | 0.00 | 80 | 1001.8 |
| 20260902231647 | -17 | 0.0 | 0.0 | 0.00 | 0.00 | 0.00 | |||
| 20260902231457 | 14 | 129 | 11.3 | 20.9 | 0.00 | 0.00 | 0.00 | 79 | 1001.9 |
| 20260902231148 | -17 | 0.0 | 0.0 | 0.00 | 0.00 | 0.00 | |||
| 20260902231000 | 14 | 136 | 11.3 | 16.1 | 0.00 | 0.00 | 0.00 | 77 | 1001.8 |
| 20260902230648 | -17 | 0.0 | 0.0 | 0.00 | 0.00 | 0.00 | |||
| 20260902230457 | 15 | 128 | 14.5 | 19.3 | 0.00 | 0.00 | 0.00 | 75 | 1001.5 |
| 20260902230147 | -17 | 0.0 | 0.0 | 0.00 | 0.00 | 0.00 | |||
| 20260902225957 | 15 | 141 | 12.9 | 19.3 | 0.00 | 0.00 | 0.00 | 74 | 1001.8 |
| 20260902225648 | -17 | 0.0 | 0.0 | 0.00 | 0.00 | 0.00 | |||
| 20260902225457 | 15 | 126 | 17.7 | 29.0 | 0.00 | 0.00 | 0.00 | 72 | 1001.5 |
| 20260902225148 | -17 | 0.0 | 0.0 | 0.00 | 0.00 | 0.00 | |||
| 20260902224957 | 15 | 146 | 14.5 | 20.9 | 0.00 | 0.00 | 0.00 | 72 | 1001.4 |
| 20260902224650 | -17 | 0.0 | 0.0 | 0.00 | 0.00 | 0.00 | |||
| 20260902224459 | 15 | 136 | 11.3 | 19.3 | 0.00 | 0.00 | 0.00 | 72 | 1001.3 |
| 20260902224148 | -17 | 0.0 | 0.0 | 0.00 | 0.00 | 0.00 | |||
| 20260902223957 | 15 | 127 | 9.7 | 14.5 | 0.00 | 0.00 | 0.00 | 72 | 1001.5 |
| 20260902223645 | -17 | 0.0 | 0.0 | 0.00 | 0.00 | 0.00 | |||
| 20260902223457 | 15 | 118 | 12.9 | 20.9 | 0.00 | 0.00 | 0.00 | 71 | 1001.6 |
| 20260902223145 | -17 | 0.0 | 0.0 | 0.00 | 0.00 | 0.00 | |||
| 20260902222958 | 16 | 131 | 14.5 | 19.3 | 0.00 | 0.00 | 0.00 | 70 | 1001.8 |
| 20260902222645 | -17 | 0.0 | 0.0 | 0.00 | 0.00 | 0.00 | |||
| 20260902222457 | 16 | 131 | 12.9 | 17.7 | 0.00 | 0.00 | 0.00 | 70 | 1001.7 |
| 20260902222145 | -17 | 0.0 | 0.0 | 0.00 | 0.00 | 0.00 | |||
| 20260902221957 | 16 | 138 | 14.5 | 20.9 | 0.00 | 0.00 | 0.00 | 69 | 1001.9 |
| 20260902221646 | -17 | 0.0 | 0.0 | 0.00 | 0.00 | 0.00 | |||
| 20260902221457 | 16 | 123 | 9.7 | 14.5 | 0.00 | 0.00 | 0.00 | 69 | 1001.8 |
| 20260902221145 | -17 | 0.0 | 0.0 | 0.00 | 0.00 | 0.00 | |||
| 20260902220958 | 16 | 120 | 9.7 | 14.5 | 0.00 | 0.00 | 0.00 | 69 | 1001.9 |
| 20260902220646 | -17 | 0.0 | 0.0 | 0.00 | 0.00 | 0.00 | |||
| 20260902220458 | 16 | 116 | 11.3 | 14.5 | 0.00 | 0.00 | 0.00 | 69 | 1001.8 |
| 20260902215957 | 16 | 128 | 11.3 | 17.7 | 0.00 | 0.00 | 0.00 | 69 | 1001.7 |
| 20260902215645 | -17 | 0.0 | 0.0 | 0.00 | 0.00 | 0.00 | |||
| 20260902215457 | 16 | 116 | 11.3 | 14.5 | 0.00 | 0.00 | 0.00 | 68 | 1001.8 |
| 20260902215146 | -17 | 0.0 | 0.0 | 0.00 | 0.00 | 0.00 | |||
| 20260902214956 | 16 | 124 | 12.9 | 17.7 | 0.00 | 0.00 | 0.00 | 68 | 1001.9 |
| 20260902214644 | -17 | 0.0 | 0.0 | 0.00 | 0.00 | 0.00 | |||
| 20260902214458 | 16 | 117 | 9.7 | 14.5 | 0.00 | 0.00 | 0.00 | 68 | 1002.0 |
| 20260902214143 | -17 | 0.0 | 0.0 | 0.00 | 0.00 | 0.00 | |||
| 20260902213957 | 16 | 124 | 9.7 | 14.5 | 0.00 | 0.00 | 0.00 | 68 | 1002.1 |
| 20260902213643 | -17 | 0.0 | 0.0 | 0.00 | 0.00 | 0.00 | |||
| 20260902213457 | 16 | 116 | 9.7 | 14.5 | 0.00 | 0.00 | 0.00 | 68 | 1002.2 |
| 20260902213144 | -17 | 0.0 | 0.0 | 0.00 | 0.00 | 0.00 | |||
| 20260902212958 | 16 | 129 | 12.9 | 19.3 | 0.00 | 0.00 | 0.00 | 67 | 1002.2 |
| 20260902212643 | -17 | 0.0 | 0.0 | 0.00 | 0.00 | 0.00 | |||
| 20260902212457 | 16 | 135 | 12.9 | 17.7 | 0.00 | 0.00 | 0.00 | 67 | 1002.1 |
| 20260902212143 | -17 | 0.0 | 0.0 | 0.00 | 0.00 | 0.00 | |||
| 20260902211957 | 16 | 126 | 12.9 | 19.3 | 0.00 | 0.00 | 0.00 | 64 | 1002.1 |
| 20260902211644 | -17 | 0.0 | 0.0 | 0.00 | 0.00 | 0.00 | |||
| 20260902211457 | 17 | 117 | 14.5 | 29.0 | 0.00 | 0.00 | 0.00 | 63 | 1002.1 |
| 20260902210957 | 17 | 120 | 12.9 | 16.1 | 0.00 | 0.00 | 0.00 | 63 | 1002.0 |
| 20260902210643 | -17 | 0.0 | 0.0 | 0.00 | 0.00 | 0.00 | |||
| 20260902210457 | 17 | 110 | 12.9 | 16.1 | 0.00 | 0.00 | 0.00 | 63 | 1002.0 |
| 20260902210144 | -17 | 0.0 | 0.0 | 0.00 | 0.00 | 0.00 | |||
| 20260902205957 | 17 | 119 | 11.3 | 14.5 | 0.00 | 0.00 | 0.00 | 63 | 1002.1 |
| 20260902205457 | 17 | 116 | 11.3 | 17.7 | 0.00 | 0.00 | 0.00 | 63 | 1002.1 |
| 20260902205144 | -17 | 0.0 | 0.0 | 0.00 | 0.00 | 0.00 | |||
| 20260902204958 | 17 | 120 | 12.9 | 20.9 | 0.00 | 0.00 | 0.00 | 63 | 1002.2 |
| 20260902204644 | -17 | 0.0 | 0.0 | 0.00 | 0.00 | 0.00 | |||
| 20260902204457 | 17 | 124 | 14.5 | 24.1 | 0.00 | 0.00 | 0.00 | 62 | 1002.2 |
| 20260902204144 | -17 | 0.0 | 0.0 | 0.00 | 0.00 | 0.00 | |||
| 20260902203641 | -17 | 0.0 | 0.0 | 0.00 | 0.00 | 0.00 | |||
| 20260902203457 | 17 | 132 | 8.0 | 14.5 | 0.00 | 0.00 | 0.00 | 63 | 1002.2 |
| 20260902203141 | -17 | 0.0 | 0.0 | 0.00 | 0.00 | 0.00 | |||
| 20260902202957 | 17 | 124 | 12.9 | 24.1 | 0.00 | 0.00 | 0.00 | 62 | 1002.1 |
| 20260902202641 | -17 | 0.0 | 0.0 | 0.00 | 0.00 | 0.00 | |||
| 20260902202457 | 17 | 119 | 14.5 | 22.5 | 0.00 | 0.00 | 0.00 | 62 | 1002.2 |
| 20260902202142 | -17 | 0.0 | 0.0 | 0.00 | 0.00 | 0.00 | |||
| 20260902201959 | 17 | 119 | 11.3 | 17.7 | 0.00 | 0.00 | 0.00 | 62 | 1002.1 |
| 20260902201642 | -17 | 0.0 | 0.0 | 0.00 | 0.00 | 0.00 | |||
| 20260902201459 | 17 | 130 | 9.7 | 12.9 | 0.00 | 0.00 | 0.00 | 62 | 1002.3 |
| 20260902201142 | -17 | 0.0 | 0.0 | 0.00 | 0.00 | 0.00 | |||
| 20260902200957 | 17 | 132 | 11.3 | 14.5 | 0.00 | 0.00 | 0.00 | 62 | 1002.2 |
| 20260902200641 | -17 | 0.0 | 0.0 | 0.00 | 0.00 | 0.00 | |||
| 20260902200458 | 17 | 139 | 9.7 | 14.5 | 0.00 | 0.00 | 0.00 | 62 | 1002.2 |
| 20260902200142 | -17 | 0.0 | 0.0 | 0.00 | 0.00 | 0.00 | |||
| 20260902200000 | 17 | 132 | 12.9 | 20.9 | 0.00 | 0.00 | 0.00 | 62 | 1001.9 |
| 20260902195641 | -17 | 0.0 | 0.0 | 0.00 | 0.00 | 0.00 | |||
| 20260902195457 | 17 | 121 | 11.3 | 20.9 | 0.00 | 0.00 | 0.00 | 63 | 1002.1 |
| 20260902195142 | -17 | 0.0 | 0.0 | 0.00 | 0.00 | 0.00 | |||
| 20260902194957 | 17 | 124 | 9.7 | 14.5 | 0.00 | 0.00 | 0.00 | 63 | 1002.3 |
| 20260902194642 | -17 | 0.0 | 0.0 | 0.00 | 0.00 | 0.00 | |||
| 20260902194457 | 17 | 117 | 11.3 | 16.1 | 0.00 | 0.00 | 0.00 | 62 | 1002.3 |
| 20260902194139 | -17 | 0.0 | 0.0 | 0.00 | 0.00 | 0.00 | |||
| 20260902193958 | 17 | 126 | 11.3 | 16.1 | 0.00 | 0.00 | 0.00 | 62 | 1002.3 |
| 20260902193458 | 17 | 121 | 9.7 | 14.5 | 0.00 | 0.00 | 0.00 | 63 | 1002.4 |
| 20260902192957 | 17 | 131 | 11.3 | 14.5 | 0.00 | 0.00 | 0.00 | 63 | 1002.5 |
| 20260902192457 | 17 | 129 | 11.3 | 16.1 | 0.00 | 0.00 | 0.00 | 62 | 1002.4 |
| 20260902191958 | 17 | 128 | 12.9 | 24.1 | 0.00 | 0.00 | 0.00 | 62 | 1002.3 |
| 20260902191458 | 17 | 137 | 11.3 | 19.3 | 0.00 | 0.00 | 0.00 | 62 | 1002.4 |
| 20260902191139 | -17 | 0.0 | 0.0 | 0.00 | 0.00 | 0.00 | |||
| 20260902190958 | 17 | 130 | 11.3 | 19.3 | 0.00 | 0.00 | 0.00 | 64 | 1002.7 |
| 20260902190640 | -17 | 0.0 | 0.0 | 0.00 | 0.00 | 0.00 | |||
| 20260902190457 | 17 | 122 | 12.9 | 19.3 | 0.00 | 0.00 | 0.00 | 64 | 1002.8 |
| 20260902190139 | -17 | 0.0 | 0.0 | 0.00 | 0.00 | 0.00 | |||
| 20260902185959 | 16 | 136 | 11.3 | 19.3 | 0.00 | 0.00 | 0.00 | 65 | 1002.6 |
| 20260902185637 | -17 | 0.0 | 0.0 | 0.00 | 0.00 | 0.00 | |||
| 20260902185457 | 16 | 118 | 14.5 | 17.7 | 0.00 | 0.00 | 0.00 | 67 | 1002.8 |
| 20260902185137 | -17 | 0.0 | 0.0 | 0.00 | 0.00 | 0.00 | |||
| 20260902184957 | 16 | 112 | 11.3 | 14.5 | 0.00 | 0.00 | 0.00 | 68 | 1003.0 |
| 20260902184637 | -17 | 0.0 | 0.0 | 0.00 | 0.00 | 0.00 | |||
| 20260902184458 | 16 | 131 | 11.3 | 20.9 | 0.00 | 0.00 | 0.00 | 69 | 1002.8 |
| 20260902183957 | 16 | 126 | 12.9 | 19.3 | 0.00 | 0.00 | 0.00 | 70 | 1003.2 |
| 20260902183638 | -17 | 0.0 | 0.0 | 0.00 | 0.00 | 0.00 | |||
| 20260902183457 | 16 | 122 | 11.3 | 16.1 | 0.00 | 0.00 | 0.00 | 69 | 1003.3 |
| 20260902182958 | 16 | 129 | 12.9 | 17.7 | 0.00 | 0.00 | 0.00 | 69 | 1003.3 |
| 20260902182638 | -17 | 0.0 | 0.0 | 0.00 | 0.00 | 0.00 | |||
| 20260902182457 | 16 | 133 | 9.7 | 14.5 | 0.00 | 0.00 | 0.00 | 70 | 1003.2 |
| 20260902182137 | -17 | 0.0 | 0.0 | 0.00 | 0.00 | 0.00 | |||
| 20260902181957 | 16 | 126 | 12.9 | 20.9 | 0.00 | 0.00 | 0.00 | 70 | 1003.3 |
| 20260902181638 | -17 | 0.0 | 0.0 | 0.00 | 0.00 | 0.00 | |||
| 20260902181457 | 16 | 135 | 9.7 | 14.5 | 0.00 | 0.00 | 0.00 | 70 | 1003.5 |
| 20260902181137 | -17 | 0.0 | 0.0 | 0.00 | 0.00 | 0.00 | |||
| 20260902180957 | 16 | 132 | 9.7 | 16.1 | 0.00 | 0.00 | 0.00 | 71 | 1003.5 |
| 20260902180459 | 16 | 118 | 12.9 | 19.3 | 0.00 | 0.00 | 0.00 | 69 | 1003.5 |
| 20260902180139 | -17 | 0.0 | 0.0 | 0.00 | 0.00 | 0.00 | |||
| 20260902175957 | 16 | 142 | 9.7 | 17.7 | 0.00 | 0.00 | 0.00 | 70 | 1003.6 |
| 20260902175638 | -17 | 0.0 | 0.0 | 0.00 | 0.00 | 0.00 | |||
| 20260902175458 | 16 | 127 | 8.0 | 14.5 | 0.00 | 0.00 | 0.00 | 70 | 1003.5 |
| 20260902174957 | 16 | 132 | 11.3 | 14.5 | 0.00 | 0.00 | 0.00 | 69 | 1003.6 |